Time;durP1;ratioP1;P1;durP2;ratioP2;P2;SDS_P1;SDS_P2;PMS_P1;PMS_P2;Temp;Humidity;BMP_temperature;BMP_pressure;BME280_temperature;BME280_humidity;BME280_pressure;Samples;Min_cycle;Max_cycle;Signal;HPM_P1;HPM_P2
2021/08/06 00:02:01;;;;;;;5.63;4.90;;;19.00;99.90;;;;;;5075788;28;20464;-74
2021/08/06 00:04:27;;;;;;;6.33;5.67;;;19.00;99.90;;;;;;5075937;28;20801;-75
2021/08/06 00:06:54;;;;;;;6.97;5.60;;;19.00;99.90;;;;;;5075816;28;20458;-75
2021/08/06 00:09:21;;;;;;;10.20;5.40;;;19.00;99.90;;;;;;5075554;28;20454;-75
2021/08/06 00:11:48;;;;;;;5.20;4.80;;;19.00;99.90;;;;;;5075968;28;20462;-74
2021/08/06 00:14:15;;;;;;;5.70;5.20;;;19.00;99.90;;;;;;5075570;28;20458;-74
2021/08/06 00:16:43;;;;;;;5.93;5.53;;;19.00;99.90;;;;;;5075783;28;20454;-75
2021/08/06 00:19:10;;;;;;;6.33;5.83;;;19.00;99.90;;;;;;5075948;28;20468;-75
2021/08/06 00:21:36;;;;;;;6.40;5.90;;;19.00;99.90;;;;;;5076006;28;20458;-76
2021/08/06 00:24:03;;;;;;;6.67;6.07;;;19.00;99.90;;;;;;5075812;28;20478;-76
2021/08/06 00:26:33;;;;;;;6.50;6.00;;;19.00;99.90;;;;;;5075389;28;20461;-75
2021/08/06 00:29:00;;;;;;;7.70;7.00;;;19.00;99.90;;;;;;5075607;28;20469;-75
2021/08/06 00:31:26;;;;;;;7.00;6.30;;;19.00;99.90;;;;;;5075058;28;20580;-75
2021/08/06 00:33:55;;;;;;;6.30;5.83;;;19.00;99.90;;;;;;5075624;28;20780;-75
2021/08/06 00:36:22;;;;;;;6.50;6.07;;;18.90;99.90;;;;;;5075264;28;20453;-75
2021/08/06 00:38:48;;;;;;;7.07;6.50;;;19.00;99.90;;;;;;5075270;28;20485;-76
2021/08/06 00:41:15;;;;;;;7.50;6.80;;;18.90;99.90;;;;;;5075044;28;20447;-75
2021/08/06 00:43:42;;;;;;;8.30;7.17;;;18.90;99.90;;;;;;5074926;28;20580;-76
2021/08/06 00:46:13;;;;;;;7.17;6.47;;;18.90;99.90;;;;;;5075237;28;20468;-75
2021/08/06 00:48:40;;;;;;;11.67;6.20;;;18.90;99.90;;;;;;5075341;28;20847;-75
2021/08/06 00:51:08;;;;;;;6.80;6.30;;;18.90;99.90;;;;;;5075325;28;20458;-75
2021/08/06 00:53:37;;;;;;;6.23;5.73;;;18.90;99.90;;;;;;5075070;28;20450;-75
2021/08/06 00:56:04;;;;;;;7.67;6.43;;;18.90;99.90;;;;;;5074984;28;20454;-75
2021/08/06 00:58:31;;;;;;;5.73;5.23;;;18.90;99.90;;;;;;5075373;28;20462;-74
2021/08/06 01:00:58;;;;;;;6.00;5.50;;;18.90;99.90;;;;;;5075694;28;20469;-74
2021/08/06 01:03:27;;;;;;;6.17;5.60;;;18.90;99.90;;;;;;5076684;28;20450;-75
2021/08/06 01:06:06;;;;;;;6.57;6.07;;;18.90;99.90;;;;;;5077268;28;20545;-75
2021/08/06 01:08:40;;;;;;;6.40;5.90;;;18.90;99.90;;;;;;5074602;28;20446;-75
2021/08/06 01:11:09;;;;;;;6.13;5.70;;;18.90;99.90;;;;;;5074218;28;20453;-75
2021/08/06 01:13:42;;;;;;;6.10;5.70;;;18.90;99.90;;;;;;5075845;28;20543;-75
2021/08/06 01:16:12;;;;;;;8.47;6.10;;;18.90;99.90;;;;;;5075284;28;20453;-75
2021/08/06 01:18:43;;;;;;;6.47;5.97;;;18.90;99.90;;;;;;5074873;28;20924;-75
2021/08/06 01:21:17;;;;;;;6.47;6.00;;;18.90;99.90;;;;;;5075195;28;20466;-75
2021/08/06 01:23:46;;;;;;;6.73;6.13;;;18.90;99.90;;;;;;5075500;28;20478;-75
2021/08/06 01:26:16;;;;;;;6.53;5.93;;;18.90;99.90;;;;;;5074635;28;20469;-75
2021/08/06 01:28:46;;;;;;;5.90;5.50;;;18.90;99.90;;;;;;5074996;28;20770;-76
2021/08/06 01:31:13;;;;;;;6.70;6.20;;;18.90;99.90;;;;;;5074886;28;20465;-75
2021/08/06 01:33:42;;;;;;;6.80;6.20;;;19.00;99.90;;;;;;5074724;28;20457;-75
2021/08/06 01:36:08;;;;;;;7.97;6.10;;;19.00;99.90;;;;;;5075015;28;20535;-75
2021/08/06 01:38:35;;;;;;;6.10;5.60;;;19.00;99.90;;;;;;5074603;28;20473;-75
2021/08/06 01:41:16;;;;;;;6.37;5.87;;;19.00;99.90;;;;;;5074943;28;20447;-75
2021/08/06 01:43:50;;;;;;;5.90;5.40;;;19.10;99.90;;;;;;5075350;28;20542;-75
2021/08/06 01:46:21;;;;;;;6.30;5.80;;;19.10;99.90;;;;;;5074750;28;20437;-75
2021/08/06 01:48:53;;;;;;;6.03;5.53;;;19.10;99.90;;;;;;5074528;28;20910;-75
2021/08/06 01:51:22;;;;;;;5.90;5.40;;;19.10;99.90;;;;;;5074891;28;20442;-75
2021/08/06 01:53:50;;;;;;;6.33;5.90;;;19.10;99.90;;;;;;5074315;28;20458;-75
2021/08/06 01:56:19;;;;;;;6.60;6.00;;;19.10;99.90;;;;;;5074572;28;20468;-75
2021/08/06 01:58:48;;;;;;;6.30;5.80;;;19.20;99.90;;;;;;5074467;28;20462;-75
2021/08/06 02:01:15;;;;;;;6.77;6.17;;;19.20;99.90;;;;;;5074246;28;20466;-75
2021/08/06 02:03:42;;;;;;;7.50;6.80;;;19.20;99.90;;;;;;5074204;28;20458;-75
2021/08/06 02:06:11;;;;;;;6.37;5.87;;;19.20;99.90;;;;;;5074252;28;20458;-75
2021/08/06 02:08:39;;;;;;;6.30;5.80;;;19.20;99.90;;;;;;5074034;28;20561;-76
2021/08/06 02:11:06;;;;;;;7.40;6.80;;;19.20;99.90;;;;;;5074055;28;20493;-76
2021/08/06 02:13:35;;;;;;;6.63;6.20;;;19.20;99.90;;;;;;5073983;28;20455;-75
2021/08/06 02:16:02;;;;;;;7.43;6.83;;;19.10;99.90;;;;;;5074193;28;20464;-75
2021/08/06 02:18:32;;;;;;;6.77;6.23;;;19.10;99.90;;;;;;5074013;28;20469;-75
2021/08/06 02:21:09;;;;;;;7.00;6.40;;;19.10;99.90;;;;;;5073873;28;20466;-75
2021/08/06 02:23:38;;;;;;;6.60;6.00;;;19.10;99.90;;;;;;5077999;28;20438;-76
2021/08/06 02:26:06;;;;;;;6.77;6.17;;;19.00;99.90;;;;;;5077798;28;20450;-75
2021/08/06 02:28:35;;;;;;;6.37;5.87;;;19.00;99.90;;;;;;5077622;28;20454;-75
2021/08/06 02:31:02;;;;;;;7.07;6.47;;;19.00;99.90;;;;;;5077918;28;20454;-75
2021/08/06 02:33:29;;;;;;;7.27;6.60;;;19.00;99.90;;;;;;5078385;28;20469;-75
2021/08/06 02:35:56;;;;;;;6.43;5.93;;;19.00;99.90;;;;;;5077816;28;20450;-75
2021/08/06 02:38:23;;;;;;;5.90;5.50;;;19.00;99.90;;;;;;5077772;28;20449;-75
2021/08/06 02:40:51;;;;;;;5.87;5.47;;;19.00;99.90;;;;;;5077922;28;20454;-75
2021/08/06 02:43:19;;;;;;;5.67;5.23;;;18.90;99.90;;;;;;5078367;28;20453;-75
2021/08/06 02:45:48;;;;;;;5.73;5.23;;;18.90;99.90;;;;;;5077328;28;20490;-76
2021/08/06 02:48:15;;;;;;;6.40;5.90;;;18.90;99.90;;;;;;5077969;28;20466;-75
2021/08/06 02:50:41;;;;;;;6.03;5.53;;;18.90;99.90;;;;;;5077390;28;20450;-75
2021/08/06 02:53:08;;;;;;;7.10;6.40;;;18.90;99.90;;;;;;5077230;28;20940;-75
2021/08/06 02:55:35;;;;;;;7.30;6.70;;;18.80;99.90;;;;;;5077548;28;20450;-75
2021/08/06 02:58:02;;;;;;;6.87;6.27;;;18.80;99.90;;;;;;5077424;28;20816;-75
2021/08/06 03:00:29;;;;;;;7.27;6.57;;;18.80;99.90;;;;;;5077073;28;20941;-76
2021/08/06 03:02:57;;;;;;;7.73;7.00;;;18.80;99.90;;;;;;5076881;28;20469;-76
2021/08/06 03:05:23;;;;;;;6.20;5.70;;;18.80;99.90;;;;;;5076656;28;20478;-75
2021/08/06 03:07:50;;;;;;;6.83;6.23;;;18.80;99.90;;;;;;5078021;28;20459;-75
2021/08/06 03:10:18;;;;;;;6.50;6.00;;;18.70;99.90;;;;;;5077042;28;20786;-75
2021/08/06 03:12:45;;;;;;;6.70;6.20;;;18.70;99.90;;;;;;5076988;28;20776;-78
2021/08/06 03:15:13;;;;;;;7.30;6.70;;;18.60;99.90;;;;;;5077109;28;20462;-75
2021/08/06 03:17:41;;;;;;;6.27;5.77;;;18.70;99.90;;;;;;5076843;28;20454;-75
2021/08/06 03:20:10;;;;;;;8.00;7.20;;;18.60;99.90;;;;;;5076608;28;20820;-75
2021/08/06 03:22:38;;;;;;;6.40;6.00;;;18.60;99.90;;;;;;5077026;28;20478;-75
2021/08/06 03:25:06;;;;;;;8.70;6.80;;;18.70;99.90;;;;;;5076183;28;20942;-75
2021/08/06 03:27:33;;;;;;;6.80;6.30;;;18.70;99.90;;;;;;5076897;28;20788;-75
2021/08/06 03:30:00;;;;;;;6.60;6.10;;;18.70;99.90;;;;;;5076542;28;20454;-75
2021/08/06 03:32:27;;;;;;;7.20;6.70;;;18.70;99.90;;;;;;5076551;28;20793;-75
2021/08/06 03:34:53;;;;;;;7.20;6.63;;;18.70;99.90;;;;;;5076782;28;20462;-75
2021/08/06 03:37:22;;;;;;;7.27;6.70;;;18.70;99.90;;;;;;5076529;28;20450;-76
2021/08/06 03:39:48;;;;;;;6.80;6.30;;;18.70;99.90;;;;;;5076086;28;20818;-75
2021/08/06 03:42:15;;;;;;;6.83;6.33;;;18.70;99.90;;;;;;5077146;28;20473;-75
2021/08/06 03:44:42;;;;;;;7.47;6.80;;;18.70;99.90;;;;;;5077980;28;20485;-75
2021/08/06 03:47:09;;;;;;;7.00;6.40;;;18.80;99.90;;;;;;5077613;28;20486;-75
2021/08/06 03:49:36;;;;;;;7.57;6.97;;;18.80;99.90;;;;;;5077218;28;20903;-76
2021/08/06 03:52:03;;;;;;;6.73;6.23;;;18.80;99.90;;;;;;5077452;28;20458;-74
2021/08/06 03:54:31;;;;;;;7.03;6.33;;;18.80;99.90;;;;;;5077578;28;20457;-74
2021/08/06 03:56:58;;;;;;;9.33;6.00;;;18.80;99.90;;;;;;5076981;28;20454;-74
2021/08/06 03:59:25;;;;;;;7.47;6.87;;;18.80;99.90;;;;;;5077778;28;20469;-75
2021/08/06 04:01:52;;;;;;;6.20;5.70;;;18.80;99.90;;;;;;5080870;28;20455;-75
2021/08/06 04:04:18;;;;;;;6.13;5.60;;;18.80;99.90;;;;;;5082309;28;20467;-75
2021/08/06 04:06:45;;;;;;;6.47;5.73;;;18.90;99.90;;;;;;5082298;28;20465;-76
2021/08/06 04:09:12;;;;;;;6.70;6.10;;;18.90;99.90;;;;;;5079240;28;20469;-76
2021/08/06 04:11:40;;;;;;;7.23;6.03;;;19.00;99.90;;;;;;5077540;28;20458;-76
2021/08/06 04:14:08;;;;;;;6.43;6.00;;;19.00;99.90;;;;;;5078106;28;20458;-75
2021/08/06 04:16:35;;;;;;;7.73;7.03;;;19.10;99.90;;;;;;5076444;28;20450;-75
2021/08/06 04:19:02;;;;;;;6.43;5.93;;;19.10;99.90;;;;;;5076407;28;20764;-75
2021/08/06 04:21:29;;;;;;;6.27;5.67;;;19.10;99.90;;;;;;5075845;28;20465;-75
2021/08/06 04:23:55;;;;;;;6.93;6.33;;;19.10;99.90;;;;;;5076123;28;20468;-75
2021/08/06 04:26:22;;;;;;;7.03;6.33;;;19.20;99.90;;;;;;5075968;28;20478;-75
2021/08/06 04:28:51;;;;;;;7.00;6.40;;;19.20;99.90;;;;;;5075666;28;20465;-75
2021/08/06 04:31:18;;;;;;;6.63;6.03;;;19.20;99.90;;;;;;5076225;28;20469;-75
2021/08/06 04:33:44;;;;;;;9.60;6.77;;;19.30;99.90;;;;;;5077383;28;20458;-75
2021/08/06 04:36:11;;;;;;;7.60;6.90;;;19.30;99.90;;;;;;5076260;28;20458;-75
2021/08/06 04:38:38;;;;;;;7.50;6.87;;;19.30;99.90;;;;;;5077391;28;20457;-75
2021/08/06 04:41:04;;;;;;;7.33;6.73;;;19.40;99.90;;;;;;5075726;28;20448;-75
2021/08/06 04:43:31;;;;;;;7.03;6.53;;;19.40;99.90;;;;;;5075340;28;20455;-75
2021/08/06 04:45:59;;;;;;;8.13;7.20;;;19.50;99.90;;;;;;5074691;28;20569;-75
2021/08/06 04:48:26;;;;;;;7.50;6.80;;;19.50;99.90;;;;;;5075344;28;20470;-75
2021/08/06 04:50:53;;;;;;;7.43;6.80;;;19.50;99.90;;;;;;5075088;28;20469;-75
2021/08/06 04:53:19;;;;;;;7.83;7.17;;;19.50;99.90;;;;;;5075369;28;20766;-75
2021/08/06 04:55:46;;;;;;;8.43;7.57;;;19.60;99.90;;;;;;5075352;28;20454;-75
2021/08/06 04:58:13;;;;;;;7.97;7.17;;;19.60;99.90;;;;;;5074982;28;20464;-76
2021/08/06 05:00:40;;;;;;;7.20;6.50;;;19.60;99.90;;;;;;5074707;28;20465;-75
2021/08/06 05:03:08;;;;;;;7.40;6.80;;;19.70;99.90;;;;;;5074962;28;20455;-76
2021/08/06 05:05:36;;;;;;;7.40;6.80;;;19.70;99.90;;;;;;5075248;28;20489;-75
2021/08/06 05:08:03;;;;;;;43.67;34.70;;;19.70;99.90;;;;;;5074438;28;20960;-75
2021/08/06 05:10:30;;;;;;;53.47;41.40;;;19.70;99.90;;;;;;5074904;28;20469;-75
2021/08/06 05:12:56;;;;;;;11.03;10.03;;;19.70;99.90;;;;;;5074598;28;20454;-75
2021/08/06 05:15:23;;;;;;;8.60;7.77;;;19.80;99.90;;;;;;5075099;28;20576;-75
2021/08/06 05:17:50;;;;;;;9.13;8.10;;;19.80;99.90;;;;;;5074795;28;20794;-75
2021/08/06 05:20:18;;;;;;;8.10;7.40;;;19.70;99.90;;;;;;5074931;28;20485;-76
2021/08/06 05:22:45;;;;;;;9.23;8.43;;;19.70;99.90;;;;;;5074922;28;20470;-75
2021/08/06 05:25:12;;;;;;;7.10;6.40;;;19.80;99.90;;;;;;5074292;28;20478;-75
2021/08/06 05:27:39;;;;;;;8.70;7.90;;;19.80;99.90;;;;;;5074277;28;20474;-75
2021/08/06 05:30:07;;;;;;;8.13;7.10;;;19.80;99.90;;;;;;5074364;28;20461;-74
2021/08/06 05:32:33;;;;;;;30.43;25.97;;;19.80;99.90;;;;;;5074223;28;20458;-74
2021/08/06 05:35:00;;;;;;;36.43;30.73;;;19.80;99.90;;;;;;5074365;28;20511;-75
2021/08/06 05:37:28;;;;;;;11.63;10.10;;;19.80;99.90;;;;;;5074431;28;20536;-75
2021/08/06 05:39:55;;;;;;;10.23;8.13;;;19.80;99.90;;;;;;5074136;28;21111;-75
2021/08/06 05:42:21;;;;;;;8.30;7.60;;;19.90;99.90;;;;;;5074253;28;20458;-76
2021/08/06 05:44:48;;;;;;;9.00;8.20;;;19.80;99.90;;;;;;5074261;28;20548;-75
2021/08/06 05:47:15;;;;;;;8.30;7.60;;;19.90;99.90;;;;;;5074544;28;20462;-75
2021/08/06 05:49:41;;;;;;;10.23;9.30;;;19.90;99.90;;;;;;5074848;28;20458;-76
2021/08/06 05:52:08;;;;;;;8.97;8.20;;;19.90;99.90;;;;;;5074190;28;20462;-75
2021/08/06 05:54:36;;;;;;;9.30;7.80;;;19.90;99.90;;;;;;5074709;28;20458;-75
2021/08/06 05:57:03;;;;;;;8.37;7.57;;;19.90;99.90;;;;;;5077844;28;20458;-76
2021/08/06 05:59:30;;;;;;;8.37;7.57;;;20.00;99.90;;;;;;5078681;28;20458;-75
2021/08/06 06:01:57;;;;;;;10.73;8.30;;;20.00;99.90;;;;;;5078461;28;20454;-75
2021/08/06 06:04:23;;;;;;;8.33;7.63;;;20.00;99.90;;;;;;5078844;28;20458;-76
2021/08/06 06:06:50;;;;;;;8.87;8.10;;;20.10;99.90;;;;;;5078291;28;20477;-75
2021/08/06 06:09:17;;;;;;;9.00;8.20;;;20.10;99.90;;;;;;5078753;28;20797;-75
2021/08/06 06:11:45;;;;;;;9.37;8.57;;;20.20;99.90;;;;;;5078232;28;20918;-75
2021/08/06 06:14:14;;;;;;;9.10;7.80;;;20.20;99.90;;;;;;5078612;28;20454;-76
2021/08/06 06:16:41;;;;;;;9.00;8.27;;;20.30;99.90;;;;;;5078402;28;20469;-75
2021/08/06 06:19:08;;;;;;;9.17;8.30;;;20.30;99.90;;;;;;5078084;28;20931;-76
2021/08/06 06:21:34;;;;;;;8.53;7.63;;;20.30;99.90;;;;;;5078019;28;20507;-75
2021/08/06 06:24:01;;;;;;;9.40;8.63;;;20.40;99.90;;;;;;5078715;28;20469;-75
2021/08/06 06:26:28;;;;;;;9.33;8.40;;;20.50;99.90;;;;;;5078528;28;20478;-75
2021/08/06 06:28:58;;;;;;;8.97;8.03;;;20.50;99.90;;;;;;5078449;28;20454;-75
2021/08/06 06:31:25;;;;;;;9.67;8.77;;;20.50;99.90;;;;;;5078266;28;20438;-75
2021/08/06 06:33:52;;;;;;;9.87;8.10;;;20.60;99.90;;;;;;5078404;28;20909;-75
2021/08/06 06:36:19;;;;;;;10.63;8.60;;;20.60;99.90;;;;;;5078319;28;20454;-76
2021/08/06 06:38:46;;;;;;;9.10;8.20;;;20.70;99.90;;;;;;5078308;28;20811;-76
2021/08/06 06:41:12;;;;;;;10.37;9.47;;;20.70;99.90;;;;;;5078437;28;20450;-75
2021/08/06 06:43:39;;;;;;;11.53;10.43;;;20.70;99.90;;;;;;5079204;28;20468;-75
2021/08/06 06:46:07;;;;;;;10.70;9.70;;;20.80;99.90;;;;;;5078418;28;20478;-75
2021/08/06 06:48:34;;;;;;;11.57;9.33;;;20.70;99.90;;;;;;5078367;28;20465;-74
2021/08/06 06:51:00;;;;;;;10.00;9.10;;;20.70;99.90;;;;;;5079094;28;20863;-75
2021/08/06 06:53:27;;;;;;;10.10;9.13;;;20.70;99.90;;;;;;5077479;28;20874;-76
2021/08/06 06:55:54;;;;;;;11.50;10.10;;;20.70;99.90;;;;;;5079107;28;20796;-75
2021/08/06 06:58:22;;;;;;;11.03;10.00;;;20.70;99.90;;;;;;5078613;28;20925;-75
2021/08/06 07:00:49;;;;;;;9.20;8.40;;;20.70;99.90;;;;;;5079577;28;20455;-76
2021/08/06 07:03:17;;;;;;;10.17;9.27;;;20.70;99.90;;;;;;5080824;28;20465;-75
2021/08/06 07:05:44;;;;;;;8.10;7.50;;;20.80;99.90;;;;;;5083224;28;20477;-75
2021/08/06 07:08:11;;;;;;;9.87;8.90;;;21.00;99.90;;;;;;5090239;28;20455;-75
2021/08/06 07:10:38;;;;;;;9.27;8.37;;;21.10;99.90;;;;;;5093282;28;20547;-75
2021/08/06 07:13:04;;;;;;;9.83;8.20;;;21.10;99.90;;;;;;5095923;28;20457;-75
2021/08/06 07:15:34;;;;;;;10.50;7.53;;;21.20;99.90;;;;;;5091119;28;20453;-75
2021/08/06 07:18:01;;;;;;;8.13;7.47;;;21.30;99.90;;;;;;5088649;28;20458;-74
2021/08/06 07:20:29;;;;;;;8.47;7.70;;;21.40;99.90;;;;;;5092047;28;20450;-75
2021/08/06 07:22:56;;;;;;;8.23;7.53;;;21.50;99.90;;;;;;5091993;28;20465;-74
2021/08/06 07:25:23;;;;;;;7.53;6.93;;;21.60;99.90;;;;;;5090672;28;20458;-75
2021/08/06 07:27:52;;;;;;;7.33;6.73;;;21.60;99.90;;;;;;5091042;28;20477;-74
2021/08/06 07:30:19;;;;;;;9.77;6.97;;;21.70;99.90;;;;;;5089330;28;20485;-74
2021/08/06 07:32:46;;;;;;;7.37;6.60;;;21.80;99.90;;;;;;5089998;28;20764;-75
2021/08/06 07:35:13;;;;;;;7.80;7.00;;;21.90;99.90;;;;;;5090843;28;20562;-75
2021/08/06 07:37:41;;;;;;;9.10;7.50;;;21.90;99.90;;;;;;5091643;28;20478;-75
2021/08/06 07:40:10;;;;;;;10.13;7.43;;;21.90;99.90;;;;;;5091528;28;20488;-74
2021/08/06 07:42:37;;;;;;;7.83;7.03;;;21.80;99.90;;;;;;5088791;28;20520;-74
2021/08/06 07:45:05;;;;;;;6.73;6.13;;;21.90;99.90;;;;;;5089320;28;20454;-74
2021/08/06 07:47:32;;;;;;;8.13;6.53;;;21.90;99.90;;;;;;5086640;28;20973;-74
2021/08/06 07:49:59;;;;;;;6.40;5.80;;;21.90;99.90;;;;;;5079814;28;20929;-74
2021/08/06 07:52:26;;;;;;;5.93;5.33;;;22.00;99.90;;;;;;5077115;28;20851;-74
2021/08/06 07:54:54;;;;;;;8.63;6.23;;;22.00;99.90;;;;;;5077495;28;20552;-74
2021/08/06 07:57:20;;;;;;;9.73;5.30;;;22.10;99.90;;;;;;5077695;28;20450;-74
2021/08/06 07:59:47;;;;;;;5.80;5.27;;;22.10;99.90;;;;;;5078350;28;20458;-74
2021/08/06 08:02:14;;;;;;;5.10;4.70;;;22.10;99.90;;;;;;5076792;28;20458;-74
2021/08/06 08:04:40;;;;;;;6.70;5.20;;;22.20;99.90;;;;;;5076850;28;20462;-74
2021/08/06 08:07:07;;;;;;;5.73;5.20;;;22.30;99.90;;;;;;5076407;28;20474;-75
2021/08/06 08:09:34;;;;;;;6.53;4.87;;;22.30;99.90;;;;;;5076797;28;20821;-74
2021/08/06 08:12:02;;;;;;;7.13;4.70;;;22.30;99.90;;;;;;5077740;28;20465;-74
2021/08/06 08:14:29;;;;;;;6.67;4.83;;;22.40;99.90;;;;;;5076748;28;20462;-74
2021/08/06 08:16:56;;;;;;;4.50;4.10;;;22.40;99.90;;;;;;5076186;28;20466;-74
2021/08/06 08:19:22;;;;;;;4.90;4.50;;;22.30;99.90;;;;;;5075172;28;20568;-74
2021/08/06 08:21:49;;;;;;;4.73;4.20;;;22.30;99.90;;;;;;5075963;28;20465;-75
2021/08/06 08:24:16;;;;;;;4.53;4.23;;;22.20;99.90;;;;;;5075670;28;20454;-74
2021/08/06 08:26:43;;;;;;;4.50;4.20;;;22.20;99.90;;;;;;5076142;28;20482;-74
2021/08/06 08:29:11;;;;;;;4.70;4.40;;;22.20;99.90;;;;;;5075580;28;20473;-74
2021/08/06 08:31:40;;;;;;;4.30;4.00;;;22.20;99.90;;;;;;5075738;28;20469;-74
2021/08/06 08:34:06;;;;;;;6.20;4.20;;;22.30;99.90;;;;;;5075207;28;20564;-75
2021/08/06 08:36:33;;;;;;;4.20;3.90;;;22.40;99.90;;;;;;5075821;28;20465;-74
2021/08/06 08:39:00;;;;;;;4.70;4.30;;;22.50;99.90;;;;;;5075761;28;20562;-74
2021/08/06 08:41:27;;;;;;;7.10;6.37;;;22.60;99.90;;;;;;5075358;28;20458;-74
2021/08/06 08:43:57;;;;;;;5.43;4.10;;;22.70;99.90;;;;;;5075488;28;20469;-75
2021/08/06 08:46:27;;;;;;;4.80;4.40;;;22.70;99.90;;;;;;5075385;28;20483;-74
2021/08/06 08:48:57;;;;;;;5.00;4.50;;;22.70;99.90;;;;;;5075081;28;20473;-75
2021/08/06 08:51:26;;;;;;;4.27;3.60;;;22.70;99.90;;;;;;5075297;28;20469;-75
2021/08/06 08:53:53;;;;;;;4.13;3.83;;;22.70;99.90;;;;;;5075420;28;20477;-75
2021/08/06 08:56:20;;;;;;;4.47;4.13;;;22.70;99.90;;;;;;5074703;28;20454;-74
2021/08/06 08:58:50;;;;;;;3.47;3.27;;;22.80;99.90;;;;;;5074612;28;20922;-73
2021/08/06 09:01:17;;;;;;;4.03;3.73;;;22.90;99.90;;;;;;5074979;28;20519;-75
2021/08/06 09:03:47;;;;;;;3.53;3.23;;;23.00;99.90;;;;;;5075473;28;20455;-74
2021/08/06 09:06:14;;;;;;;3.40;3.20;;;23.00;99.90;;;;;;5074469;28;20958;-74
2021/08/06 09:08:42;;;;;;;6.30;3.13;;;23.10;99.90;;;;;;5074911;28;20450;-75
2021/08/06 09:11:28;;;;;;;3.10;2.90;;;23.20;99.90;;;;;;5074746;28;20477;-75
2021/08/06 09:13:55;;;;;;;3.53;3.20;;;23.10;99.90;;;;;;5074553;28;20443;-74
2021/08/06 09:16:22;;;;;;;3.33;3.13;;;22.90;99.90;;;;;;5074859;28;20450;-75
2021/08/06 09:18:50;;;;;;;4.13;3.80;;;22.90;99.90;;;;;;5074381;28;20453;-75
2021/08/06 09:21:22;;;;;;;4.17;3.87;;;23.00;99.90;;;;;;5075187;28;20458;-74
2021/08/06 09:23:52;;;;;;;7.13;3.20;;;23.00;99.90;;;;;;5074658;28;20450;-74
2021/08/06 09:26:42;;;;;;;3.00;2.80;;;23.00;99.90;;;;;;5074100;28;20488;-74
2021/08/06 09:29:10;;;;;;;8.60;3.30;;;23.10;99.90;;;;;;5074959;28;20460;-74
2021/08/06 09:31:39;;;;;;;4.53;4.20;;;23.20;99.90;;;;;;5074480;28;20805;-75
2021/08/06 09:34:27;;;;;;;4.53;2.80;;;23.30;99.90;;;;;;5074894;28;20460;-75
2021/08/06 09:37:07;;;;;;;3.93;2.53;;;23.50;99.90;;;;;;5074561;28;20431;-75
2021/08/06 09:39:38;;;;;;;4.63;3.57;;;23.60;99.90;;;;;;5074710;28;20482;-75
2021/08/06 09:42:14;;;;;;;4.53;3.87;;;23.70;99.90;;;;;;5074190;28;20426;-75
2021/08/06 09:44:41;;;;;;;3.60;3.40;;;23.80;99.90;;;;;;5074523;28;20465;-75
2021/08/06 09:47:19;;;;;;;2.40;2.20;;;23.80;99.90;;;;;;5074631;28;20498;-75
2021/08/06 09:49:49;;;;;;;3.30;3.00;;;23.90;99.90;;;;;;5074485;28;20467;-74
2021/08/06 09:52:16;;;;;;;5.00;3.60;;;24.00;99.90;;;;;;5073989;28;20918;-75
2021/08/06 09:54:50;;;;;;;3.20;3.00;;;24.10;99.90;;;;;;5074274;28;20484;-75
2021/08/06 09:57:18;;;;;;;4.03;3.70;;;24.20;99.90;;;;;;5074705;28;20834;-74
2021/08/06 09:59:51;;;;;;;3.17;2.97;;;24.10;99.90;;;;;;5074421;28;20761;-74
2021/08/06 10:02:20;;;;;;;3.00;2.70;;;24.10;99.90;;;;;;5074290;28;20478;-74
2021/08/06 10:05:03;;;;;;;4.00;3.30;;;24.00;99.90;;;;;;5074272;28;20458;-75
2021/08/06 10:07:31;;;;;;;3.53;3.23;;;24.00;99.90;;;;;;5074442;28;20466;-74
2021/08/06 10:09:59;;;;;;;6.37;4.70;;;24.10;99.90;;;;;;5074218;28;20583;-74
2021/08/06 10:12:26;;;;;;;3.50;3.20;;;24.30;99.90;;;;;;5073888;28;20754;-74
2021/08/06 10:14:53;;;;;;;5.80;5.20;;;24.40;99.90;;;;;;5076649;28;20465;-74
2021/08/06 10:17:20;;;;;;;3.30;3.00;;;24.50;99.90;;;;;;5077901;28;20674;-74
2021/08/06 10:19:50;;;;;;;3.10;2.90;;;24.60;99.90;;;;;;5079139;28;20493;-77
2021/08/06 10:22:36;;;;;;;3.77;2.93;;;24.70;99.90;;;;;;5077005;28;20450;-75
2021/08/06 10:25:24;;;;;;;6.50;2.43;;;24.80;99.90;;;;;;5077908;28;20442;-76
2021/08/06 10:27:52;;;;;;;3.30;2.37;;;24.80;99.90;;;;;;5076648;28;20486;-76
2021/08/06 10:30:24;;;;;;;2.60;2.40;;;24.80;99.90;;;;;;5074212;28;20469;-75
2021/08/06 10:33:08;;;;;;;2.53;2.33;;;25.00;99.90;;;;;;5074734;28;20457;-75
2021/08/06 10:36:17;;;;;;;2.77;2.57;;;25.10;99.90;;;;;;5077679;28;20888;-76
2021/08/06 10:38:52;;;;;;;3.10;2.60;;;25.40;99.90;;;;;;5076525;28;20518;-75
2021/08/06 10:41:23;;;;;;;2.60;2.40;;;25.60;99.90;;;;;;5076467;28;20458;-75
2021/08/06 10:44:00;;;;;;;2.97;2.77;;;25.80;99.90;;;;;;5076913;28;20465;-76
2021/08/06 10:47:12;;;;;;;2.83;2.03;;;26.00;99.90;;;;;;5078874;28;20438;-76
2021/08/06 10:49:43;;;;;;;4.87;2.73;;;26.20;99.90;;;;;;5079143;28;20879;-75
2021/08/06 10:52:29;;;;;;;2.90;2.53;;;26.30;99.90;;;;;;5079470;28;20986;-75
2021/08/06 10:55:18;;;;;;;2.40;2.20;;;26.30;99.90;;;;;;5079520;28;20797;-76
2021/08/06 10:57:51;;;;;;;2.80;2.60;;;26.40;99.90;;;;;;5081118;28;20473;-75
2021/08/06 11:00:52;;;;;;;3.50;2.83;;;26.40;99.90;;;;;;5081203;28;20485;-75
2021/08/06 11:03:44;;;;;;;4.80;2.33;;;26.40;99.90;;;;;;5079162;28;20508;-75
2021/08/06 11:06:33;;;;;;;3.30;2.60;;;26.40;99.90;;;;;;5080403;28;20458;-77
2021/08/06 11:09:00;;;;;;;2.70;2.47;;;26.70;99.90;;;;;;5078439;28;20542;-75
2021/08/06 11:12:01;;;;;;;2.40;2.20;;;26.90;99.90;;;;;;5079672;28;20458;-76
2021/08/06 11:15:05;;;;;;;4.07;2.27;;;27.00;99.90;;;;;;5079784;28;20466;-75
2021/08/06 11:17:47;;;;;;;3.20;2.43;;;26.90;99.90;;;;;;5071816;28;20541;-75
2021/08/06 11:20:18;;;;;;;2.27;2.07;;;26.60;99.90;;;;;;5078851;28;20500;-75
2021/08/06 11:22:47;;;;;;;3.40;2.33;;;26.60;99.90;;;;;;5078948;28;20450;-75
2021/08/06 11:25:17;;;;;;;2.50;1.90;;;26.60;99.90;;;;;;5078982;28;20450;-75
2021/08/06 11:27:53;;;;;;;5.40;2.53;;;26.70;99.90;;;;;;5078866;28;20481;-74
2021/08/06 11:30:22;;;;;;;7.93;2.30;;;26.90;99.90;;;;;;5078501;28;20786;-75
2021/08/06 11:32:52;;;;;;;2.60;2.20;;;27.40;99.90;;;;;;5077917;28;20913;-74
2021/08/06 11:35:20;;;;;;;2.47;2.27;;;27.90;99.90;;;;;;5077392;28;20473;-74
2021/08/06 11:37:53;;;;;;;2.10;1.90;;;28.50;99.90;;;;;;5077301;28;20450;-74
2021/08/06 11:40:21;;;;;;;2.47;2.00;;;29.20;99.90;;;;;;5076692;28;20474;-74
2021/08/06 11:42:50;;;;;;;2.90;2.00;;;30.10;99.90;;;;;;5076203;28;20493;-74
2021/08/06 11:45:18;;;;;;;2.80;2.40;;;30.80;98.80;;;;;;5076589;28;20469;-74
2021/08/06 11:47:49;;;;;;;2.30;2.10;;;31.00;96.50;;;;;;5076586;28;20486;-74
2021/08/06 11:50:19;;;;;;;4.70;2.70;;;31.10;95.00;;;;;;5079582;28;20473;-74
2021/08/06 11:52:48;;;;;;;4.50;2.30;;;31.30;94.70;;;;;;5078084;28;20526;-75
2021/08/06 11:55:16;;;;;;;2.40;2.20;;;31.20;92.80;;;;;;5075696;28;20454;-74
2021/08/06 11:57:44;;;;;;;2.50;2.30;;;31.10;92.80;;;;;;5077349;28;20524;-75
2021/08/06 12:00:29;;;;;;;2.40;2.20;;;30.90;92.60;;;;;;5077064;28;20454;-74
2021/08/06 12:03:03;;;;;;;3.73;2.43;;;30.60;91.90;;;;;;5075277;28;20461;-74
2021/08/06 12:05:30;;;;;;;2.90;2.70;;;30.20;91.80;;;;;;5076502;28;20446;-74
2021/08/06 12:07:57;;;;;;;3.00;2.10;;;29.90;92.60;;;;;;5076072;28;20970;-75
2021/08/06 12:10:25;;;;;;;3.60;2.70;;;29.70;93.70;;;;;;5076734;28;20458;-75
2021/08/06 12:12:52;;;;;;;2.70;2.50;;;29.50;92.90;;;;;;5076807;28;20458;-73
2021/08/06 12:15:21;;;;;;;3.27;2.43;;;29.00;92.70;;;;;;5076488;28;20454;-74
2021/08/06 12:18:08;;;;;;;15.13;13.63;;;28.70;92.90;;;;;;5075908;28;20451;-74
2021/08/06 12:20:36;;;;;;;3.30;3.00;;;28.50;94.80;;;;;;5076047;28;20847;-75
2021/08/06 12:23:04;;;;;;;2.90;2.40;;;28.80;95.00;;;;;;5076099;28;20469;-74
2021/08/06 12:25:32;;;;;;;2.20;2.00;;;29.50;94.60;;;;;;5075598;28;20454;-73
2021/08/06 12:27:59;;;;;;;2.10;1.90;;;30.40;93.00;;;;;;5075088;28;20504;-74
2021/08/06 12:30:27;;;;;;;2.57;2.03;;;31.40;92.70;;;;;;5075511;28;20458;-74
2021/08/06 12:32:55;;;;;;;2.73;2.30;;;31.90;90.50;;;;;;5075513;28;20558;-73
2021/08/06 12:35:24;;;;;;;2.40;2.30;;;31.60;87.10;;;;;;5075465;28;20887;-74
2021/08/06 12:37:52;;;;;;;3.23;2.00;;;31.10;87.90;;;;;;5075345;28;20450;-74
2021/08/06 12:40:20;;;;;;;4.23;2.57;;;30.50;86.20;;;;;;5075239;28;20785;-75
2021/08/06 12:42:47;;;;;;;1.97;1.87;;;30.20;88.60;;;;;;5075111;28;20455;-74
2021/08/06 12:45:19;;;;;;;2.47;2.27;;;30.20;90.30;;;;;;5074982;28;20473;-74
2021/08/06 12:47:47;;;;;;;2.10;1.90;;;30.10;88.70;;;;;;5074930;28;20471;-74
2021/08/06 12:50:18;;;;;;;4.50;2.40;;;30.10;91.40;;;;;;5074410;28;20466;-74
2021/08/06 12:52:45;;;;;;;2.83;2.23;;;30.50;90.70;;;;;;5075506;28;20749;-74
2021/08/06 12:55:13;;;;;;;3.43;2.10;;;30.70;88.70;;;;;;5074585;28;20467;-74
2021/08/06 12:57:46;;;;;;;3.33;2.20;;;30.80;89.40;;;;;;5074816;28;20450;-75